Time;durP1;ratioP1;P1;durP2;ratioP2;P2;SDS_P1;SDS_P2;PMS_P1;PMS_P2;Temp;Humidity;BMP_temperature;BMP_pressure;BME280_temperature;BME280_humidity;BME280_pressure;Samples;Min_cycle;Max_cycle;Signal;HPM_P1;HPM_P2
2022/12/30 00:01:15;;;;;;;19.35;11.75;;;;;;;4.49;58.79;100727.23;1755567;81;20995;-69
2022/12/30 00:03:41;;;;;;;18.67;12.13;;;;;;;4.45;58.90;100729.48;1725901;82;21091;-69
2022/12/30 00:06:14;;;;;;;17.95;11.68;;;;;;;4.41;58.97;100729.62;1751985;80;21587;-70
2022/12/30 00:08:48;;;;;;;15.13;10.70;;;;;;;4.36;59.11;100725.45;1766019;80;21444;-68
2022/12/30 00:11:26;;;;;;;18.02;11.30;;;;;;;4.29;59.23;100720.72;1757253;80;21055;-69
2022/12/30 00:34:11;;;;;;;17.70;11.80;;;;;;;4.00;60.46;100726.32;1748111;79;21264;-68
2022/12/30 00:36:37;;;;;;;16.65;11.45;;;;;;;3.97;60.72;100726.73;1744589;81;21031;-68
2022/12/30 00:39:04;;;;;;;18.48;11.45;;;;;;;3.95;61.00;100720.87;1725721;83;21062;-68
2022/12/30 00:44:17;;;;;;;18.25;12.68;;;;;;;4.03;61.21;100724.29;1741096;80;21030;-69
2022/12/30 00:46:43;;;;;;;17.87;11.30;;;;;;;4.07;61.28;100728.13;1739986;81;21230;-68
2022/12/30 00:57:25;;;;;;;18.87;11.70;;;;;;;4.27;61.32;100725.40;1750944;81;21030;-68
2022/12/30 00:59:52;;;;;;;18.77;11.40;;;;;;;4.33;61.22;100729.84;1757880;81;21073;-68
2022/12/30 01:02:19;;;;;;;17.45;11.97;;;;;;;4.35;61.08;100725.98;1754219;79;20995;-69
2022/12/30 01:04:45;;;;;;;17.27;12.15;;;;;;;4.35;60.97;100725.98;1761311;81;21066;-69
2022/12/30 01:07:12;;;;;;;16.57;11.50;;;;;;;4.35;60.86;100717.23;1771825;81;21024;-68
2022/12/30 01:09:39;;;;;;;18.32;12.30;;;;;;;4.35;60.84;100722.01;1771607;79;21056;-69
2022/12/30 01:12:07;;;;;;;19.52;12.65;;;;;;;4.35;60.75;100716.72;1762942;79;21156;-69
2022/12/30 01:14:42;;;;;;;20.23;13.35;;;;;;;4.35;60.62;100716.72;1770738;80;21455;-69
2022/12/30 01:17:12;;;;;;;19.27;12.43;;;;;;;4.33;60.56;100717.43;1760300;80;21115;-69
2022/12/30 01:19:39;;;;;;;20.27;13.25;;;;;;;4.29;60.54;100710.95;1763424;79;21509;-70
2022/12/30 01:22:07;;;;;;;19.95;13.10;;;;;;;4.27;60.53;100712.17;1750034;81;21051;-69
2022/12/30 01:24:34;;;;;;;20.72;13.28;;;;;;;4.24;60.57;100708.11;1766397;79;21260;-70
2022/12/30 01:27:02;;;;;;;20.12;12.78;;;;;;;4.25;60.61;100712.41;1780470;79;20936;-69
2022/12/30 01:29:39;;;;;;;19.90;12.98;;;;;;;4.26;60.71;100715.34;1782694;80;20996;-70
2022/12/30 01:32:14;;;;;;;19.87;12.53;;;;;;;4.26;60.71;100704.77;1781398;80;21475;-70
2022/12/30 01:34:41;;;;;;;19.92;12.65;;;;;;;4.27;60.71;100697.63;1773193;80;20949;-69
2022/12/30 01:37:08;;;;;;;22.50;13.20;;;;;;;4.25;60.72;100708.44;1775595;80;21261;-69
2022/12/30 01:39:35;;;;;;;22.65;12.82;;;;;;;4.26;60.75;100709.24;1773151;80;20987;-69
2022/12/30 01:42:02;;;;;;;19.75;12.75;;;;;;;4.23;60.83;100707.31;1772482;79;21478;-69
2022/12/30 01:44:59;;;;;;;18.73;12.73;;;;;;;4.22;60.90;100702.25;1761027;79;21046;-69
2022/12/30 01:47:59;;;;;;;19.77;13.00;;;;;;;4.21;60.94;100704.56;1778362;80;21102;-69
2022/12/30 01:51:01;;;;;;;19.75;12.00;;;;;;;4.22;60.95;100707.53;1767798;79;22266;-69
2022/12/30 01:53:36;;;;;;;21.93;13.10;;;;;;;4.20;60.98;100707.73;1761859;80;21050;-69
2022/12/30 01:56:09;;;;;;;18.82;12.47;;;;;;;4.18;61.00;100707.66;1781670;80;21482;-69
2022/12/30 01:58:53;;;;;;;19.20;12.45;;;;;;;4.17;61.08;100707.34;1782001;80;21430;-69
2022/12/30 02:01:20;;;;;;;20.57;12.37;;;;;;;4.16;61.14;100708.37;1781937;80;21513;-68
2022/12/30 02:03:59;;;;;;;18.30;12.90;;;;;;;4.15;61.13;100709.41;1782269;79;21982;-71
2022/12/30 02:06:49;;;;;;;18.57;11.83;;;;;;;4.13;61.08;100704.83;1787254;79;21009;-68
2022/12/30 02:09:16;;;;;;;20.62;12.40;;;;;;;4.11;61.16;100697.61;1773208;80;21227;-69
2022/12/30 02:11:43;;;;;;;19.12;11.97;;;;;;;4.10;61.20;100698.64;1773011;80;21039;-69
2022/12/30 02:14:10;;;;;;;21.87;12.85;;;;;;;4.10;61.24;100693.35;1779180;80;21007;-68
2022/12/30 02:16:59;;;;;;;19.67;12.63;;;;;;;4.12;61.20;100691.32;1781860;80;21888;-69
2022/12/30 02:19:49;;;;;;;16.82;11.83;;;;;;;4.12;61.20;100691.32;1782100;80;20964;-69
2022/12/30 02:23:01;;;;;;;18.80;12.88;;;;;;;4.11;61.23;100689.16;1782032;80;20987;-69
2022/12/30 02:26:02;;;;;;;21.07;12.20;;;;;;;4.13;61.30;100688.97;1781904;80;22976;-71
2022/12/30 02:29:05;;;;;;;19.48;12.60;;;;;;;4.12;61.36;100690.00;1782680;79;21054;-71
2022/12/30 02:31:54;;;;;;;19.17;12.28;;;;;;;4.13;61.39;100685.00;1763120;80;21447;-72
2022/12/30 02:34:29;;;;;;;19.48;12.75;;;;;;;4.16;61.46;100683.27;1774385;80;21090;-72
2022/12/30 02:37:26;;;;;;;19.02;12.73;;;;;;;4.19;61.45;100681.52;1721795;80;21860;-72
2022/12/30 02:40:14;;;;;;;19.62;13.15;;;;;;;4.22;61.47;100679.77;1767020;79;21316;-72
2022/12/30 02:45:40;;;;;;;17.60;12.68;;;;;;;4.26;61.43;100684.93;1782616;79;21868;-72
2022/12/30 02:48:17;;;;;;;;;;;;;;;4.28;61.50;100684.22;1774328;79;21597;-72
2022/12/30 02:53:34;;;;;;;20.55;13.03;;;;;;;4.35;61.54;100678.89;1754240;80;20952;-72
2022/12/30 02:56:01;;;;;;;20.35;12.65;;;;;;;4.36;61.53;100678.66;1782205;80;20988;-72
2022/12/30 02:58:31;;;;;;;19.40;13.32;;;;;;;4.40;61.53;100677.21;1777653;79;21131;-71
2022/12/30 03:04:24;;;;;;;18.77;12.25;;;;;;;4.48;61.49;100684.62;1774430;80;21470;-71
2022/12/30 03:07:08;;;;;;;20.85;12.30;;;;;;;4.52;61.45;100683.96;1739329;80;21454;-71
2022/12/30 03:12:53;;;;;;;20.15;13.08;;;;;;;4.61;61.33;100682.69;1715747;79;21495;-73
2022/12/30 03:15:23;;;;;;;20.12;13.28;;;;;;;4.64;61.28;100683.58;1769012;79;21062;-72
2022/12/30 03:17:50;;;;;;;20.57;13.18;;;;;;;4.65;61.25;100686.52;1782766;79;21030;-72
2022/12/30 03:20:18;;;;;;;19.75;11.97;;;;;;;4.68;61.25;100688.73;1779161;79;21588;-72
2022/12/30 03:28:18;;;;;;;18.32;11.97;;;;;;;4.77;61.20;100703.02;1751133;82;21438;-72
2022/12/30 03:30:51;;;;;;;16.10;11.40;;;;;;;4.80;61.19;100703.39;1750963;82;21043;-72
2022/12/30 03:33:18;;;;;;;17.52;12.18;;;;;;;4.81;61.13;100698.41;1771636;80;20979;-71
2022/12/30 03:35:53;;;;;;;18.48;12.53;;;;;;;4.80;61.12;100699.94;1724073;80;21012;-71
2022/12/30 03:38:21;;;;;;;20.62;12.80;;;;;;;4.77;61.12;100698.55;1721565;83;21345;-70
2022/12/30 03:40:48;;;;;;;17.92;12.35;;;;;;;4.77;61.14;100705.17;1728750;83;21046;-70
2022/12/30 03:43:14;;;;;;;18.02;11.95;;;;;;;4.80;61.17;100700.74;1726789;81;20967;-71
2022/12/30 03:45:41;;;;;;;19.25;12.58;;;;;;;4.84;61.17;100705.13;1746284;81;21490;-70
2022/12/30 03:48:08;;;;;;;20.45;12.65;;;;;;;4.88;61.19;100704.46;1745944;82;21039;-70
2022/12/30 03:50:35;;;;;;;18.60;11.85;;;;;;;4.89;61.17;100692.84;1744830;82;23084;-72
2022/12/30 03:53:02;;;;;;;20.30;12.70;;;;;;;4.92;61.14;100699.03;1744339;82;20948;-70
2022/12/30 03:55:29;;;;;;;18.92;12.55;;;;;;;4.93;61.09;100703.80;1754356;81;21003;-70
2022/12/30 03:57:56;;;;;;;20.25;12.82;;;;;;;4.96;61.07;100708.67;1750653;82;20928;-69
2022/12/30 04:00:23;;;;;;;17.35;11.35;;;;;;;4.98;60.99;100705.82;1751184;82;21067;-70
2022/12/30 04:02:49;;;;;;;19.12;12.50;;;;;;;4.99;60.97;100714.05;1756734;81;21859;-69
2022/12/30 04:05:16;;;;;;;20.23;12.70;;;;;;;4.97;60.92;100712.95;1765996;79;21066;-69
2022/12/30 04:07:42;;;;;;;19.48;12.70;;;;;;;4.98;60.89;100719.06;1775134;79;20998;-69
2022/12/30 04:10:09;;;;;;;19.20;13.20;;;;;;;4.99;60.92;100718.02;1776750;80;21039;-70
2022/12/30 04:12:37;;;;;;;18.10;12.78;;;;;;;5.02;60.94;100717.08;1776647;80;21106;-70
2022/12/30 04:15:05;;;;;;;18.57;11.93;;;;;;;5.06;60.92;100709.51;1777223;80;21822;-70
2022/12/30 04:17:32;;;;;;;19.73;12.50;;;;;;;5.09;60.82;100711.72;1766755;79;21513;-69
2022/12/30 04:19:58;;;;;;;18.73;12.20;;;;;;;5.32;60.40;100713.77;1767331;79;21049;-69
2022/12/30 04:22:25;;;;;;;19.60;12.90;;;;;;;5.53;59.96;100708.58;1774264;80;21101;-69
2022/12/30 04:24:52;;;;;;;21.00;13.15;;;;;;;5.60;59.73;100704.02;1777061;80;21037;-69
2022/12/30 04:27:19;;;;;;;18.42;12.78;;;;;;;5.64;59.57;100714.47;1777008;80;22294;-69
2022/12/30 04:29:46;;;;;;;20.30;13.38;;;;;;;5.67;59.42;100707.41;1777181;80;20987;-69
2022/12/30 04:32:13;;;;;;;20.48;12.95;;;;;;;5.70;59.28;100704.83;1769897;79;20998;-70
2022/12/30 04:34:39;;;;;;;18.57;13.35;;;;;;;5.72;59.15;100706.73;1761184;78;20984;-69
2022/12/30 04:37:06;;;;;;;17.90;12.60;;;;;;;5.74;59.02;100707.33;1760758;80;21039;-70
2022/12/30 04:39:33;;;;;;;20.57;13.58;;;;;;;5.76;58.98;100707.41;1776670;79;21500;-69
2022/12/30 04:41:59;;;;;;;20.55;13.90;;;;;;;5.79;58.93;100707.45;1776318;79;21047;-70
2022/12/30 04:44:26;;;;;;;20.85;13.03;;;;;;;5.82;58.82;100707.86;1757694;81;20952;-69
2022/12/30 04:46:53;;;;;;;19.27;13.32;;;;;;;5.83;58.73;100706.81;1748662;80;21007;-70
2022/12/30 04:49:19;;;;;;;20.62;13.75;;;;;;;5.85;58.63;100710.03;1753898;81;21041;-70
2022/12/30 04:51:46;;;;;;;19.30;12.98;;;;;;;5.85;58.53;100715.34;1753354;81;21177;-70
2022/12/30 04:54:13;;;;;;;19.10;13.13;;;;;;;5.83;58.47;100712.63;1753552;81;20908;-70
2022/12/30 04:56:40;;;;;;;20.97;13.95;;;;;;;5.82;58.46;100718.45;1756430;81;21008;-69
2022/12/30 04:59:07;;;;;;;21.27;14.35;;;;;;;5.83;58.40;100709.98;1758064;81;21011;-69
2022/12/30 05:01:33;;;;;;;18.95;13.25;;;;;;;5.82;58.39;100709.67;1759164;80;21062;-70
2022/12/30 05:04:00;;;;;;;18.42;12.53;;;;;;;5.81;58.42;100712.84;1749752;80;21556;-69
2022/12/30 05:06:26;;;;;;;20.70;13.28;;;;;;;5.82;58.41;100713.16;1757476;81;21089;-69
2022/12/30 05:08:52;;;;;;;20.05;13.90;;;;;;;5.83;58.36;100711.31;1776032;80;20952;-69
2022/12/30 05:11:19;;;;;;;21.05;14.60;;;;;;;5.80;58.29;100709.91;1776967;80;21008;-69
2022/12/30 05:13:45;;;;;;;21.05;13.58;;;;;;;5.80;58.29;100708.58;1757078;80;21041;-69
2022/12/30 05:16:12;;;;;;;19.45;14.03;;;;;;;5.80;58.30;100714.41;1775066;80;21459;-70
2022/12/30 05:18:39;;;;;;;19.40;13.18;;;;;;;5.79;58.31;100707.45;1756788;80;20987;-70
2022/12/30 05:21:06;;;;;;;20.72;13.90;;;;;;;5.82;58.34;100701.72;1731441;80;21254;-70
2022/12/30 05:26:17;;;;;;;20.62;13.80;;;;;;;5.81;58.31;100699.59;1749396;81;21063;-70
2022/12/30 05:28:46;;;;;;;20.55;14.13;;;;;;;5.78;58.26;100696.05;1750583;80;21186;-69
2022/12/30 05:31:14;;;;;;;21.70;14.45;;;;;;;5.76;58.31;100695.48;1759052;80;21086;-69
2022/12/30 05:33:40;;;;;;;20.40;14.23;;;;;;;5.75;58.31;100693.04;1769054;80;21098;-69
2022/12/30 05:36:09;;;;;;;22.27;14.55;;;;;;;5.73;58.33;100696.45;1761814;79;21000;-70
2022/12/30 05:38:36;;;;;;;23.02;15.15;;;;;;;5.71;58.33;100697.17;1777309;80;20983;-69
2022/12/30 05:41:03;;;;;;;21.57;14.55;;;;;;;5.69;58.33;100697.89;1767057;80;21448;-70
2022/12/30 05:43:31;;;;;;;21.60;14.50;;;;;;;5.67;58.36;100704.75;1776012;79;20956;-70
2022/12/30 05:45:58;;;;;;;22.37;15.13;;;;;;;5.65;58.39;100706.28;1766755;79;21028;-69
2022/12/30 05:48:25;;;;;;;21.02;15.03;;;;;;;5.61;58.42;100702.46;1729803;81;20984;-70
2022/12/30 05:50:52;;;;;;;21.42;14.80;;;;;;;5.59;58.48;100702.38;1754585;80;21038;-70
2022/12/30 05:53:20;;;;;;;21.30;14.50;;;;;;;5.56;58.54;100700.17;1728425;80;21218;-70
2022/12/30 05:55:46;;;;;;;21.33;15.20;;;;;;;5.57;58.62;100703.13;1724684;83;21001;-71
2022/12/30 05:58:13;;;;;;;21.80;14.78;;;;;;;5.58;58.67;100706.06;1724242;83;21031;-71
2022/12/30 06:00:40;;;;;;;21.40;15.40;;;;;;;5.60;58.70;100702.70;1724638;83;21044;-72
2022/12/30 06:03:07;;;;;;;23.30;15.55;;;;;;;5.59;58.64;100707.68;1724458;83;21043;-71
2022/12/30 06:05:33;;;;;;;19.40;13.00;;;;;;;5.58;58.67;100715.34;1743728;81;21636;-71
2022/12/30 06:08:00;;;;;;;22.50;15.18;;;;;;;5.58;58.67;100724.62;1753572;81;21048;-71
2022/12/30 06:10:27;;;;;;;23.10;15.75;;;;;;;5.54;58.62;100722.12;1753290;81;21092;-70
2022/12/30 06:12:54;;;;;;;21.27;14.45;;;;;;;5.56;58.64;100727.50;1753324;81;20970;-71
2022/12/30 06:15:21;;;;;;;24.10;15.95;;;;;;;5.58;58.63;100721.97;1753540;81;21686;-71
2022/12/30 06:17:47;;;;;;;21.80;14.83;;;;;;;5.61;58.69;100722.34;1723620;81;21156;-71
2022/12/30 06:20:15;;;;;;;21.82;15.03;;;;;;;5.65;58.69;100721.37;1755625;81;21462;-71
2022/12/30 06:22:42;;;;;;;22.20;16.02;;;;;;;5.68;58.70;100722.27;1757699;81;21056;-71
2022/12/30 06:25:08;;;;;;;21.30;14.78;;;;;;;5.72;58.63;100726.61;1758258;81;21498;-71
2022/12/30 06:27:35;;;;;;;20.92;15.72;;;;;;;5.72;58.56;100726.61;1757950;81;21078;-71
2022/12/30 06:30:03;;;;;;;22.80;14.78;;;;;;;5.72;58.52;100730.06;1758139;81;21075;-68
2022/12/30 06:32:31;;;;;;;20.90;14.65;;;;;;;5.73;58.50;100733.55;1757796;81;21782;-69
2022/12/30 06:34:58;;;;;;;25.20;15.28;;;;;;;5.70;58.43;100734.80;1758064;81;21015;-70
2022/12/30 06:37:25;;;;;;;22.40;15.38;;;;;;;5.69;58.45;100741.63;1757912;81;21012;-70
2022/12/30 06:39:52;;;;;;;23.65;14.83;;;;;;;5.68;58.54;100748.77;1757696;81;21050;-70
2022/12/30 06:42:19;;;;;;;21.07;15.13;;;;;;;5.71;58.58;100746.20;1757773;81;21230;-69
2022/12/30 06:44:46;;;;;;;22.90;14.73;;;;;;;5.72;58.53;100748.61;1758008;81;21043;-69
2022/12/30 06:47:13;;;;;;;22.42;15.63;;;;;;;5.75;58.52;100749.50;1757755;81;20983;-69
2022/12/30 06:49:40;;;;;;;22.40;15.32;;;;;;;5.80;58.50;100746.21;1758044;81;20983;-70
2022/12/30 06:52:07;;;;;;;21.42;15.08;;;;;;;5.87;58.47;100747.75;1757981;81;21110;-70
2022/12/30 06:54:34;;;;;;;21.85;14.93;;;;;;;6.02;58.26;100753.21;1758008;81;21145;-70
2022/12/30 06:57:00;;;;;;;23.00;15.28;;;;;;;6.12;58.01;100753.53;1757381;81;21023;-69
2022/12/30 06:59:27;;;;;;;23.20;16.00;;;;;;;6.19;57.94;100756.91;1758395;81;21046;-69
2022/12/30 07:01:54;;;;;;;22.90;15.53;;;;;;;6.26;57.92;100768.23;1757752;81;21537;-70
2022/12/30 07:04:20;;;;;;;23.87;15.60;;;;;;;6.34;57.85;100762.61;1757830;81;20999;-69
2022/12/30 07:06:47;;;;;;;22.98;15.25;;;;;;;6.43;57.71;100768.43;1758145;81;21162;-70
2022/12/30 07:09:15;;;;;;;22.27;15.05;;;;;;;6.53;57.63;100777.19;1758075;81;20928;-69
2022/12/30 07:11:42;;;;;;;24.20;16.27;;;;;;;6.60;57.52;100776.58;1757832;81;21071;-70
2022/12/30 07:14:08;;;;;;;23.70;16.10;;;;;;;6.68;57.35;100771.45;1758131;81;21059;-69
2022/12/30 07:16:35;;;;;;;22.55;15.40;;;;;;;6.73;57.19;100769.75;1757847;81;21066;-70
2022/12/30 07:19:03;;;;;;;22.40;15.75;;;;;;;6.79;57.13;100776.81;1758001;81;21027;-70
2022/12/30 07:21:30;;;;;;;23.18;15.03;;;;;;;6.88;57.00;100771.17;1725797;81;21640;-70
2022/12/30 07:23:58;;;;;;;25.02;16.23;;;;;;;6.95;56.85;100765.27;1757972;81;21025;-69
2022/12/30 07:26:24;;;;;;;20.00;13.93;;;;;;;7.01;56.75;100771.00;1758098;81;21598;-70
2022/12/30 07:28:55;;;;;;;21.07;15.18;;;;;;;7.09;56.62;100773.31;1758162;81;20969;-70
2022/12/30 07:31:22;;;;;;;22.40;16.27;;;;;;;7.14;56.27;100776.59;1754057;81;21402;-69
2022/12/30 07:33:49;;;;;;;24.87;15.93;;;;;;;7.16;56.15;100775.34;1753500;81;21085;-71
2022/12/30 07:36:15;;;;;;;24.10;15.63;;;;;;;7.19;55.97;100773.55;1753795;81;21002;-70
2022/12/30 07:38:42;;;;;;;22.27;15.50;;;;;;;7.21;55.93;100770.69;1753369;81;21445;-71
2022/12/30 07:41:09;;;;;;;19.42;14.50;;;;;;;7.25;55.81;100763.34;1753641;81;21022;-70
2022/12/30 07:43:35;;;;;;;20.82;15.20;;;;;;;7.31;55.64;100771.45;1740407;81;21956;-70
2022/12/30 07:46:07;;;;;;;18.90;14.33;;;;;;;7.33;55.55;100767.50;1729337;81;20948;-70
2022/12/30 07:48:34;;;;;;;21.42;15.15;;;;;;;7.39;55.41;100763.13;1753406;81;20962;-69
2022/12/30 07:51:10;;;;;;;22.00;14.93;;;;;;;7.44;55.35;100768.05;1753471;81;21134;-69
2022/12/30 07:53:37;;;;;;;21.27;15.40;;;;;;;7.53;55.32;100771.14;1753364;81;21536;-68
2022/12/30 07:56:06;;;;;;;22.75;15.38;;;;;;;7.62;55.16;100774.28;1753737;81;21199;-69
2022/12/30 07:58:33;;;;;;;20.60;15.38;;;;;;;7.71;55.05;100773.69;1753456;81;21073;-68
2022/12/30 08:01:08;;;;;;;20.75;14.85;;;;;;;7.82;54.86;100782.70;1753630;81;21022;-71
2022/12/30 08:03:35;;;;;;;19.77;14.05;;;;;;;7.90;54.61;100781.55;1753564;81;21459;-69
2022/12/30 08:06:09;;;;;;;19.67;14.68;;;;;;;7.98;54.49;100779.84;1753582;81;20990;-70
2022/12/30 08:08:35;;;;;;;22.48;14.63;;;;;;;8.05;54.30;100780.52;1752462;81;21702;-70
2022/12/30 08:11:02;;;;;;;21.07;14.80;;;;;;;8.14;54.17;100781.78;1753567;81;20979;-71
2022/12/30 08:13:32;;;;;;;20.62;15.08;;;;;;;8.23;53.84;100775.58;1753394;81;21077;-70
2022/12/30 08:15:59;;;;;;;20.50;14.90;;;;;;;8.28;53.63;100776.99;1753746;81;21041;-68
2022/12/30 08:18:25;;;;;;;22.90;15.08;;;;;;;8.34;53.54;100768.59;1723787;81;21493;-71
2022/12/30 08:20:52;;;;;;;21.05;15.08;;;;;;;8.40;53.31;100771.68;1705861;81;21918;-70
2022/12/30 08:23:18;;;;;;;20.35;14.63;;;;;;;8.45;53.18;100777.08;1757822;81;21035;-68
2022/12/30 08:25:45;;;;;;;21.02;15.08;;;;;;;8.50;53.16;100770.54;1758128;81;21026;-70
2022/12/30 08:28:12;;;;;;;22.10;15.23;;;;;;;8.54;53.02;100763.69;1757947;81;21011;-70
2022/12/30 08:30:39;;;;;;;21.55;14.90;;;;;;;8.61;52.83;100763.02;1758444;81;21034;-70
2022/12/30 08:33:06;;;;;;;21.05;14.87;;;;;;;8.63;52.54;100764.92;1757898;81;21320;-71
2022/12/30 08:35:33;;;;;;;19.70;14.50;;;;;;;8.62;52.53;100761.16;1758170;81;20987;-70
2022/12/30 08:37:59;;;;;;;19.48;14.15;;;;;;;8.64;52.41;100765.20;1757864;81;21047;-69
2022/12/30 08:40:26;;;;;;;19.35;14.53;;;;;;;8.66;52.29;100753.00;1757990;81;21027;-68
2022/12/30 08:42:53;;;;;;;21.77;14.35;;;;;;;8.64;52.18;100756.41;1757922;81;21038;-69
2022/12/30 08:45:21;;;;;;;20.72;14.73;;;;;;;8.65;52.23;100762.84;1758106;81;21569;-69
2022/12/30 08:47:48;;;;;;;20.62;15.15;;;;;;;8.67;52.16;100763.92;1757790;81;21018;-69
2022/12/30 08:50:15;;;;;;;18.82;14.38;;;;;;;8.71;52.18;100766.91;1758073;81;20956;-70
2022/12/30 08:52:43;;;;;;;19.00;14.00;;;;;;;8.77;52.09;100768.63;1757859;81;21419;-69
2022/12/30 08:55:10;;;;;;;22.05;16.20;;;;;;;8.80;51.91;100764.95;1757757;81;21047;-69
2022/12/30 08:57:39;;;;;;;20.80;14.63;;;;;;;8.84;52.00;100762.61;1757883;81;21259;-67
2022/12/30 09:00:08;;;;;;;18.95;13.53;;;;;;;8.87;51.97;100756.28;1758086;81;20956;-69
2022/12/30 09:02:34;;;;;;;18.62;13.72;;;;;;;8.92;51.81;100755.05;1757879;81;20976;-73
2022/12/30 09:05:01;;;;;;;17.15;12.58;;;;;;;8.94;51.70;100756.13;1758137;81;21514;-71
2022/12/30 09:07:29;;;;;;;19.45;14.38;;;;;;;8.96;51.47;100762.03;1734802;81;21057;-73
2022/12/30 09:09:56;;;;;;;20.50;14.63;;;;;;;8.89;51.10;100766.71;1758220;81;22201;-72
2022/12/30 09:12:23;;;;;;;20.77;14.83;;;;;;;8.77;51.12;100769.95;1728326;81;21102;-73
2022/12/30 09:14:50;;;;;;;18.52;13.18;;;;;;;8.63;51.24;100770.25;1758442;81;21015;-71
2022/12/30 09:17:16;;;;;;;21.07;14.95;;;;;;;8.54;51.47;100763.69;1728160;81;21062;-69
2022/12/30 09:19:43;;;;;;;21.77;15.25;;;;;;;8.50;51.62;100766.55;1757833;81;20992;-70
2022/12/30 09:22:10;;;;;;;23.30;15.03;;;;;;;8.50;51.77;100768.41;1758196;81;21784;-70
2022/12/30 09:24:37;;;;;;;18.85;14.43;;;;;;;8.52;51.88;100765.77;1758100;81;21070;-70
2022/12/30 09:27:04;;;;;;;18.23;13.48;;;;;;;8.54;51.91;100762.35;1757991;81;21550;-71
2022/12/30 09:29:30;;;;;;;20.20;13.93;;;;;;;8.53;51.91;100755.95;1758412;81;21042;-70
2022/12/30 09:31:57;;;;;;;21.97;15.20;;;;;;;8.54;51.93;100767.67;1758146;81;20952;-70
2022/12/30 09:34:24;;;;;;;22.17;14.68;;;;;;;8.52;51.84;100767.62;1758010;81;21245;-70
2022/12/30 09:36:50;;;;;;;20.12;13.95;;;;;;;8.51;52.00;100765.48;1758176;81;21094;-69
2022/12/30 09:39:17;;;;;;;20.82;15.28;;;;;;;8.57;52.03;100760.55;1752579;80;21099;-72
2022/12/30 09:45:06;;;;;;;19.52;14.18;;;;;;;8.87;51.91;100750.16;1747199;80;21410;-71
2022/12/30 09:47:38;;;;;;;19.73;13.35;;;;;;;9.10;51.95;100748.67;1743017;80;21189;-71
2022/12/30 09:50:25;;;;;;;19.85;13.70;;;;;;;9.37;51.56;100740.81;1721788;81;20948;-71
2022/12/30 09:53:03;;;;;;;20.35;14.75;;;;;;;9.54;50.36;100739.98;1748874;81;20970;-71
2022/12/30 09:55:50;;;;;;;18.62;13.48;;;;;;;9.65;50.34;100738.29;1758197;81;21071;-72
2022/12/30 09:58:24;;;;;;;18.90;14.40;;;;;;;9.89;50.39;100738.86;1728237;81;21454;-72
2022/12/30 10:00:51;;;;;;;19.20;13.55;;;;;;;10.02;49.19;100729.95;1752238;81;21149;-69
2022/12/30 10:03:21;;;;;;;18.15;13.50;;;;;;;9.81;50.18;100727.56;1757690;81;21038;-69
2022/12/30 10:06:14;;;;;;;17.80;13.05;;;;;;;9.91;50.19;100730.89;1757968;81;21047;-70
2022/12/30 10:09:16;;;;;;;19.67;13.10;;;;;;;9.96;49.42;100720.80;1728040;81;21035;-71
2022/12/30 10:12:05;;;;;;;18.48;13.53;;;;;;;10.12;49.06;100726.59;1758022;81;21149;-71
2022/12/30 10:15:09;;;;;;;19.95;13.62;;;;;;;10.01;49.30;100711.00;1758146;81;20995;-70
2022/12/30 10:18:06;;;;;;;19.90;13.55;;;;;;;10.01;49.15;100708.33;1750872;81;21018;-70
2022/12/30 10:21:07;;;;;;;17.50;13.03;;;;;;;9.99;49.11;100709.09;1778638;80;20986;-71
2022/12/30 10:23:51;;;;;;;18.30;13.08;;;;;;;9.99;49.18;100714.44;1781766;80;21034;-70
2022/12/30 10:26:26;;;;;;;17.30;12.35;;;;;;;10.03;49.32;100706.73;1781560;80;20990;-68
2022/12/30 10:29:05;;;;;;;23.20;16.52;;;;;;;10.15;49.54;100711.95;1782002;80;21918;-70
2022/12/30 10:31:34;;;;;;;27.35;17.95;;;;;;;10.26;49.29;100709.69;1781920;80;21524;-70
2022/12/30 10:34:17;;;;;;;23.18;15.20;;;;;;;10.40;49.49;100710.09;1782036;80;21532;-70
2022/12/30 10:36:55;;;;;;;17.65;13.10;;;;;;;10.55;49.44;100703.04;1778761;80;21058;-70
2022/12/30 10:39:25;;;;;;;19.23;12.73;;;;;;;10.71;48.78;100699.98;1761181;79;21052;-69
2022/12/30 10:42:20;;;;;;;15.83;12.10;;;;;;;10.75;48.59;100697.61;1742377;82;21632;-70
2022/12/30 10:44:54;;;;;;;16.15;11.15;;;;;;;10.83;48.61;100693.69;1742738;81;21063;-70
2022/12/30 10:47:53;;;;;;;15.18;10.65;;;;;;;10.90;48.34;100688.39;1742236;82;20984;-69
2022/12/30 10:50:41;;;;;;;16.27;12.43;;;;;;;10.92;48.04;100682.24;1742741;82;21121;-70
2022/12/30 10:53:19;;;;;;;16.17;12.18;;;;;;;10.85;48.06;100674.17;1744723;80;20960;-70
2022/12/30 10:55:53;;;;;;;14.75;11.25;;;;;;;10.83;48.26;100680.32;1777325;80;21104;-70
2022/12/30 10:58:42;;;;;;;17.65;12.73;;;;;;;10.84;48.39;100677.38;1776938;80;20983;-71
2022/12/30 11:01:19;;;;;;;15.48;11.22;;;;;;;10.85;48.24;100674.17;1777167;80;21649;-69
2022/12/30 11:03:50;;;;;;;18.87;12.10;;;;;;;10.86;48.34;100681.95;1776867;80;22203;-70
2022/12/30 11:06:23;;;;;;;;;;;;;;;10.88;48.11;100682.48;1780164;80;21018;-69
2022/12/30 11:08:51;;;;;;;16.82;12.73;;;;;;;10.79;48.10;100681.34;1777105;80;21123;-71
2022/12/30 11:11:18;;;;;;;17.20;12.88;;;;;;;10.68;48.17;100680.45;1778848;80;21035;-71
2022/12/30 11:16:41;;;;;;;18.82;13.40;;;;;;;10.64;48.42;100678.55;1781036;80;21035;-70
2022/12/30 11:19:23;;;;;;;18.45;13.85;;;;;;;10.62;48.26;100677.99;1781802;80;21027;-71
2022/12/30 11:21:55;;;;;;;16.17;12.50;;;;;;;10.58;48.38;100675.56;1760378;80;21759;-69
2022/12/30 11:24:22;;;;;;;17.42;12.40;;;;;;;10.58;48.60;100675.56;1782013;80;21043;-69
2022/12/30 11:26:49;;;;;;;18.55;12.20;;;;;;;10.56;48.45;100677.13;1781706;80;21152;-70
2022/12/30 11:29:18;;;;;;;17.45;11.35;;;;;;;10.52;48.54;100680.84;1773876;80;21060;-70
2022/12/30 11:31:48;;;;;;;17.02;12.20;;;;;;;10.49;48.85;100679.21;1773166;80;21063;-70
2022/12/30 11:34:32;;;;;;;16.67;12.58;;;;;;;10.53;48.96;100675.80;1773111;80;21111;-70
2022/12/30 11:37:00;;;;;;;17.23;12.53;;;;;;;10.61;48.71;100670.52;1773023;80;21040;-70
2022/12/30 11:39:32;;;;;;;17.20;12.25;;;;;;;10.65;48.68;100673.48;1740807;80;20961;-69
2022/12/30 11:42:01;;;;;;;16.82;12.35;;;;;;;10.66;48.44;100674.58;1773188;80;21004;-69
2022/12/30 11:44:31;;;;;;;16.10;11.85;;;;;;;10.62;48.44;100679.33;1773325;80;21016;-70
2022/12/30 11:47:04;;;;;;;16.12;11.78;;;;;;;10.59;48.49;100669.16;1773142;80;21140;-69
2022/12/30 11:49:50;;;;;;;17.62;12.20;;;;;;;10.62;48.67;100676.66;1773246;80;21064;-69
2022/12/30 11:52:20;;;;;;;18.23;11.75;;;;;;;10.68;48.53;100680.45;1773327;80;21075;-68
2022/12/30 11:54:50;;;;;;;15.50;10.75;;;;;;;10.69;48.57;100679.38;1773287;80;20986;-69
2022/12/30 11:57:26;;;;;;;13.83;10.53;;;;;;;10.71;48.60;100673.80;1773751;80;21052;-69
2022/12/30 11:59:57;;;;;;;16.17;11.88;;;;;;;10.74;48.62;100673.30;1773415;80;22116;-68
2022/12/30 12:02:34;;;;;;;16.75;12.25;;;;;;;10.66;48.51;100668.41;1773358;80;21003;-68
2022/12/30 12:05:02;;;;;;;16.17;11.03;;;;;;;10.58;48.63;100672.36;1773203;80;21117;-68
2022/12/30 12:07:44;;;;;;;18.02;12.20;;;;;;;10.46;48.70;100671.70;1772998;80;21061;-69
2022/12/30 12:10:23;;;;;;;15.77;11.43;;;;;;;10.37;48.86;100671.91;1773616;80;21494;-69
2022/12/30 12:12:55;;;;;;;16.42;12.25;;;;;;;10.26;49.14;100671.78;1773456;80;21124;-71
2022/12/30 12:15:47;;;;;;;17.15;11.63;;;;;;;10.16;49.37;100678.86;1773360;80;28392;-69
2022/12/30 12:18:29;;;;;;;;;;;;;;;10.12;49.62;100677.22;1776539;80;22391;-69
2022/12/30 12:21:21;;;;;;;16.93;11.45;;;;;;;10.14;49.74;100684.99;1773373;80;20327;-69
2022/12/30 12:24:26;;;;;;;15.23;10.25;;;;;;;10.10;49.90;100689.49;1767082;80;21118;-70
2022/12/30 12:27:16;;;;;;;16.20;11.97;;;;;;;10.11;49.97;100691.63;1773232;80;21877;-70
2022/12/30 12:29:42;;;;;;;14.50;11.12;;;;;;;10.05;49.98;100685.95;1773290;80;21040;-70
2022/12/30 12:32:45;;;;;;;17.23;11.57;;;;;;;10.03;50.18;100679.52;1773228;80;21067;-70
2022/12/30 12:35:51;;;;;;;15.80;11.68;;;;;;;10.06;50.35;100683.02;1773245;80;20949;-69